Time;durP1;ratioP1;P1;durP2;ratioP2;P2;SDS_P1;SDS_P2;PMS_P1;PMS_P2;Temp;Humidity;BMP_temperature;BMP_pressure;BME280_temperature;BME280_humidity;BME280_pressure;Samples;Min_cycle;Max_cycle;Signal;HPM_P1;HPM_P2
2021/10/27 00:02:11;;;;;;;3.17;1.52;;;;;;;9.07;92.46;100231.63;2309252;67;40289;-81
2021/10/27 00:05:14;;;;;;;4.43;1.60;;;;;;;9.06;92.55;100227.28;2314786;69;20267;-80
2021/10/27 00:08:17;;;;;;;4.89;1.91;;;;;;;9.06;92.57;100232.47;2309777;69;20343;-80
2021/10/27 00:11:19;;;;;;;4.90;1.40;;;;;;;9.05;92.63;100232.44;2308204;69;20146;-80
2021/10/27 00:14:22;;;;;;;1.83;1.20;;;;;;;9.05;92.56;100235.03;2315478;69;20110;-82
2021/10/27 00:17:25;;;;;;;4.85;1.39;;;;;;;9.04;92.56;100233.31;2318735;67;41196;-81
2021/10/27 00:20:27;;;;;;;3.19;1.42;;;;;;;9.03;92.74;100241.94;2315784;69;20306;-80
2021/10/27 00:23:30;;;;;;;2.21;2.00;;;;;;;9.02;92.92;100246.22;2312617;69;20260;-80
2021/10/27 00:26:33;;;;;;;5.76;1.60;;;;;;;9.03;92.97;100239.34;2317244;69;20279;-81
2021/10/27 00:29:35;;;;;;;3.29;1.51;;;;;;;9.07;92.88;100235.94;2310300;69;20253;-81
2021/10/27 00:32:38;;;;;;;3.00;1.59;;;;;;;9.09;92.77;100242.88;2310352;67;27283;-79
2021/10/27 00:35:41;;;;;;;2.67;1.64;;;;;;;9.11;92.80;100240.31;2319673;69;20282;-79
2021/10/27 00:38:45;;;;;;;3.80;2.20;;;;;;;9.15;92.68;100231.72;2308639;70;20456;-81
2021/10/27 00:41:47;;;;;;;3.75;1.65;;;;;;;9.16;92.56;100230.91;2313246;70;20423;-80
2021/10/27 00:44:50;;;;;;;4.53;2.85;;;;;;;9.19;92.53;100238.72;2316074;70;20293;-81
2021/10/27 00:47:52;;;;;;;4.51;2.40;;;;;;;9.21;92.42;100239.59;2303215;67;41331;-80
2021/10/27 00:50:55;;;;;;;3.59;2.28;;;;;;;9.22;92.26;100243.94;2305023;70;20274;-81
2021/10/27 00:53:59;;;;;;;3.61;2.01;;;;;;;9.25;92.26;100249.16;2323979;69;20115;-79
2021/10/27 00:57:05;;;;;;;4.49;1.92;;;;;;;9.22;92.27;100230.13;2297215;69;20307;-81
2021/10/27 01:00:08;;;;;;;5.49;1.56;;;;;;;9.21;92.48;100234.44;2305926;70;20278;-81
2021/10/27 01:03:11;;;;;;;3.49;1.99;;;;;;;9.23;92.46;100234.44;2304516;70;20254;-81
2021/10/27 01:10:54;;;;;;;3.13;1.86;;;;;;;9.21;92.83;100239.59;2289677;70;20337;-81
2021/10/27 01:19:31;;;;;;;4.70;2.04;;;;;;;9.22;92.99;100249.13;2290143;70;20796;-81
2021/10/27 01:23:51;;;;;;;5.36;2.49;;;;;;;9.23;93.18;100245.69;2266993;71;20323;-81
2021/10/27 01:27:50;;;;;;;3.22;2.08;;;;;;;9.21;93.39;100246.50;2248418;71;20327;-81
2021/10/27 01:32:24;;;;;;;3.61;2.30;;;;;;;9.22;93.43;100249.13;2230766;72;20428;-81
2021/10/27 01:39:45;;;;;;;4.72;2.67;;;;;;;9.25;93.29;100256.06;2307056;69;20357;-80
2021/10/27 01:42:52;;;;;;;3.47;2.58;;;;;;;9.24;93.51;100249.16;2301625;69;20292;-80
2021/10/27 01:45:55;;;;;;;5.03;2.83;;;;;;;9.26;93.45;100247.44;2300661;70;20207;-80
2021/10/27 01:49:02;;;;;;;5.53;2.51;;;;;;;9.28;93.43;100246.59;2298609;70;20323;-80
2021/10/27 01:52:14;;;;;;;6.54;2.26;;;;;;;9.30;93.38;100247.50;2299388;70;20294;-80
2021/10/27 01:55:58;;;;;;;6.25;3.11;;;;;;;9.31;93.38;100244.06;2274130;70;20616;-80
2021/10/27 01:59:13;;;;;;;5.76;2.64;;;;;;;9.35;93.25;100245.00;2294806;70;20282;-79
2021/10/27 02:02:18;;;;;;;5.41;2.40;;;;;;;9.36;93.07;100244.16;2291757;70;20418;-80
2021/10/27 02:06:46;;;;;;;5.60;2.21;;;;;;;9.39;92.82;100247.66;2282549;70;20180;-80
2021/10/27 02:11:02;;;;;;;6.03;2.42;;;;;;;9.42;92.58;100241.63;2257327;71;20257;-80
2021/10/27 02:15:24;;;;;;;5.24;3.17;;;;;;;9.42;92.44;100228.66;2248524;71;20273;-80
2021/10/27 02:19:51;;;;;;;4.10;2.31;;;;;;;9.38;92.19;100230.34;2231110;72;20332;-81
2021/10/27 02:24:11;;;;;;;6.35;2.14;;;;;;;9.39;91.94;100241.59;2214615;72;20426;-81
2021/10/27 02:32:35;;;;;;;4.41;2.16;;;;;;;9.41;91.58;100228.66;2287559;70;20429;-80
2021/10/27 02:36:05;;;;;;;2.91;1.69;;;;;;;9.45;91.40;100226.13;2287325;70;20468;-81
2021/10/27 02:39:24;;;;;;;6.91;2.72;;;;;;;9.45;91.39;100222.66;2277065;70;20160;-80
2021/10/27 02:45:59;;;;;;;3.60;2.42;;;;;;;9.42;91.11;100215.72;2312370;69;20340;-81
2021/10/27 02:49:09;;;;;;;3.20;2.56;;;;;;;9.42;91.11;100218.31;2308680;69;20288;-81
2021/10/27 02:53:13;;;;;;;6.26;3.06;;;;;;;9.41;91.07;100216.56;2299672;69;20301;-81
2021/10/27 02:57:02;;;;;;;4.43;2.80;;;;;;;9.37;91.04;100209.59;2289123;70;20201;-81
2021/10/27 03:00:10;;;;;;;4.40;2.79;;;;;;;9.37;91.05;100212.19;2276405;70;20208;-82
2021/10/27 03:04:03;;;;;;;3.19;2.39;;;;;;;9.34;90.95;100213.03;2280655;70;20183;-81
2021/10/27 03:07:11;;;;;;;5.09;2.44;;;;;;;9.35;91.05;100212.19;2282210;70;20159;-81
2021/10/27 03:10:47;;;;;;;5.11;2.56;;;;;;;9.37;91.19;100213.06;2277498;70;20157;-81
2021/10/27 03:17:31;;;;;;;5.26;2.79;;;;;;;9.38;91.04;100216.53;2312533;69;20174;-81
2021/10/27 03:21:39;;;;;;;3.25;2.64;;;;;;;9.37;91.03;100209.59;2283930;69;20163;-82
2021/10/27 03:25:21;;;;;;;3.78;2.41;;;;;;;9.38;91.04;100211.34;2289613;70;20269;-80
2021/10/27 03:28:54;;;;;;;4.21;2.58;;;;;;;9.40;91.04;100214.81;2287044;70;20171;-81
2021/10/27 03:32:32;;;;;;;3.84;2.90;;;;;;;9.39;91.21;100215.69;2277324;70;20296;-81
2021/10/27 03:36:53;;;;;;;6.06;2.71;;;;;;;9.35;91.17;100211.31;2267758;70;20313;-80
2021/10/27 03:41:22;;;;;;;5.19;2.44;;;;;;;9.35;91.26;100216.50;2257690;71;20298;-81
2021/10/27 03:45:24;;;;;;;5.04;2.51;;;;;;;9.36;91.50;100215.63;2244803;71;20438;-81
2021/10/27 03:48:52;;;;;;;5.95;2.67;;;;;;;9.34;91.80;100217.34;2250510;71;20455;-81
2021/10/27 03:52:17;;;;;;;3.99;2.95;;;;;;;9.33;91.79;100213.84;2243144;71;20345;-81
2021/10/27 03:55:58;;;;;;;3.71;2.49;;;;;;;9.33;91.77;100212.97;2241555;71;20397;-80
2021/10/27 03:59:37;;;;;;;4.16;2.65;;;;;;;9.36;91.71;100223.41;2237869;72;20141;-80
2021/10/27 04:03:03;;;;;;;3.99;2.76;;;;;;;9.35;91.77;100219.94;2223915;72;20267;-81
2021/10/27 04:07:01;;;;;;;4.39;2.15;;;;;;;9.38;91.67;100230.34;2227797;72;20410;-80
2021/10/27 04:10:53;;;;;;;3.29;2.63;;;;;;;9.39;91.58;100221.72;2203376;73;20420;-80
2021/10/27 04:17:30;;;;;;;4.19;2.74;;;;;;;9.45;91.22;100228.72;2310324;69;20340;-81
2021/10/27 04:20:58;;;;;;;3.77;2.38;;;;;;;9.47;91.39;100236.50;2314870;69;21104;-81
2021/10/27 04:24:34;;;;;;;3.10;2.26;;;;;;;9.49;91.27;100227.88;2301095;69;20249;-79
2021/10/27 04:28:03;;;;;;;3.75;2.26;;;;;;;9.50;91.60;100233.94;2285442;70;20315;-80
2021/10/27 04:31:54;;;;;;;3.91;2.41;;;;;;;9.50;91.69;100232.22;2277832;70;20296;-81
2021/10/27 04:35:17;;;;;;;4.15;2.44;;;;;;;9.50;91.92;100237.41;2276268;70;20418;-80
2021/10/27 04:39:52;;;;;;;3.47;2.35;;;;;;;9.50;92.13;100236.53;2271016;71;20180;-80
2021/10/27 04:43:54;;;;;;;3.08;2.21;;;;;;;9.46;92.17;100245.13;2262729;71;20390;-81
2021/10/27 04:52:33;;;;;;;3.83;2.20;;;;;;;9.46;92.27;100245.13;2236984;72;20747;-81
2021/10/27 04:57:00;;;;;;;3.36;2.41;;;;;;;9.45;92.31;100244.25;2206690;73;20419;-81
2021/10/27 05:01:03;;;;;;;2.83;1.90;;;;;;;9.46;92.16;100253.78;2196386;73;20421;-81
2021/10/27 05:04:53;;;;;;;2.70;1.77;;;;;;;9.46;92.45;100253.78;2181876;74;20176;-81
2021/10/27 05:26:07;;;;;;;7.03;2.80;;;;;;;9.46;92.50;100237.34;2304438;69;20223;-80
2021/10/27 05:32:45;;;;;;;5.41;2.65;;;;;;;9.51;92.04;100249.50;2300456;70;20363;-80
2021/10/27 05:35:57;;;;;;;6.39;2.92;;;;;;;9.51;92.01;100246.91;2276854;70;20204;-81
2021/10/27 05:44:14;;;;;;;4.39;2.35;;;;;;;9.49;92.26;100248.63;2282505;70;20178;-81
2021/10/27 05:48:12;;;;;;;4.36;2.34;;;;;;;9.51;92.44;100243.47;2272825;70;20252;-81
2021/10/27 05:55:27;;;;;;;6.51;2.96;;;;;;;9.57;92.21;100241.84;2312960;69;20195;-80
2021/10/27 05:58:32;;;;;;;4.24;2.66;;;;;;;9.58;92.14;100243.59;2294163;70;20139;-80
2021/10/27 06:01:35;;;;;;;6.70;3.51;;;;;;;9.58;92.27;100248.78;2296445;70;20115;-82
2021/10/27 06:04:54;;;;;;;6.68;3.28;;;;;;;9.57;92.46;100244.44;2282038;69;20356;-81
2021/10/27 06:08:01;;;;;;;6.94;3.25;;;;;;;9.60;92.32;100243.59;2303653;69;20166;-81
2021/10/27 06:11:17;;;;;;;5.04;3.03;;;;;;;9.60;92.11;100244.47;2288667;70;20727;-80
2021/10/27 06:14:20;;;;;;;4.64;3.35;;;;;;;9.58;91.99;100243.59;2273594;70;20175;-80
2021/10/27 06:17:23;;;;;;;5.95;3.46;;;;;;;9.60;91.96;100244.47;2281026;70;20286;-80
2021/10/27 06:20:27;;;;;;;5.72;3.53;;;;;;;9.61;91.84;100245.34;2271843;70;20237;-80
2021/10/27 06:23:40;;;;;;;6.38;4.66;;;;;;;9.61;91.93;100242.75;2283156;70;20375;-80
2021/10/27 06:27:06;;;;;;;5.81;3.13;;;;;;;9.62;92.02;100241.91;2257251;71;20675;-80
2021/10/27 06:30:23;;;;;;;6.71;3.31;;;;;;;9.61;92.05;100243.63;2249957;71;20320;-80
2021/10/27 06:53:31;;;;;;;7.32;3.25;;;;;;;9.75;91.33;100274.91;2266754;71;20218;-82
2021/10/27 06:57:25;;;;;;;5.14;2.74;;;;;;;9.79;91.11;100287.06;2266742;70;20414;-80
2021/10/27 07:00:59;;;;;;;3.64;2.69;;;;;;;9.82;90.90;100294.88;2274325;67;99773;-83
2021/10/27 07:23:59;;;;;;;3.51;3.00;;;;;;;9.98;90.29;100299.41;2306282;69;20161;-80
2021/10/27 07:27:20;;;;;;;7.51;3.14;;;;;;;10.03;90.20;100299.47;2307729;69;20132;-82
2021/10/27 07:30:23;;;;;;;5.07;3.21;;;;;;;10.08;90.08;100302.16;2303636;70;20270;-83
2021/10/27 07:33:30;;;;;;;5.38;3.05;;;;;;;10.12;90.01;100312.56;2320893;69;20175;-84
2021/10/27 07:41:24;;;;;;;6.78;2.73;;;;;;;10.22;89.82;100309.25;2282150;70;20631;-80
2021/10/27 07:45:01;;;;;;;7.14;3.41;;;;;;;10.27;89.71;100302.41;2281029;70;22273;-80
2021/10/27 07:48:24;;;;;;;5.71;3.15;;;;;;;10.35;89.35;100314.59;2294459;70;20155;-79
2021/10/27 07:52:05;;;;;;;4.49;3.42;;;;;;;10.36;88.99;100314.59;2283160;70;20176;-80
2021/10/27 07:56:15;;;;;;;7.43;3.88;;;;;;;10.42;88.84;100319.03;2268716;70;20231;-80
2021/10/27 08:06:27;;;;;;;7.16;3.69;;;;;;;10.62;88.78;100325.28;2315140;69;20150;-80
2021/10/27 08:09:52;;;;;;;6.18;3.66;;;;;;;10.69;88.61;100323.63;2310068;69;20980;-81
2021/10/27 08:13:36;;;;;;;7.36;4.05;;;;;;;10.76;88.27;100325.41;2296506;70;20164;-80
2021/10/27 08:16:54;;;;;;;7.59;4.29;;;;;;;10.84;88.12;100335.03;2293542;70;20151;-81
2021/10/27 08:20:11;;;;;;;7.81;3.76;;;;;;;10.90;87.89;100348.06;2295496;70;20674;-80
2021/10/27 08:26:32;;;;;;;12.00;3.35;;;;;;;11.03;87.54;100330.00;2313131;69;21031;-81
2021/10/27 08:29:47;;;;;;;9.05;3.49;;;;;;;11.06;87.29;100330.03;2307682;69;20260;-80
2021/10/27 08:37:08;;;;;;;10.57;3.97;;;;;;;11.20;87.17;100325.81;2276609;70;20178;-81
2021/10/27 08:41:06;;;;;;;9.70;3.64;;;;;;;11.26;86.97;100323.25;2257811;71;20158;-80
2021/10/27 08:44:58;;;;;;;9.64;3.53;;;;;;;11.32;86.78;100319.84;2257678;71;20163;-81
2021/10/27 08:48:49;;;;;;;8.22;3.13;;;;;;;11.37;86.57;100312.97;1601829;69;51419817;-80
2021/10/27 08:52:35;;;;;;;7.01;2.96;;;;;;;11.41;85.75;100310.38;2235570;71;20283;-81
2021/10/27 08:56:35;;;;;;;6.28;3.41;;;;;;;11.40;85.15;100303.44;2235207;72;20194;-80
2021/10/27 09:00:12;;;;;;;9.02;3.45;;;;;;;11.44;84.81;100301.72;2239538;72;20211;-80
2021/10/27 11:11:56;;;;;;;4.50;1.71;;;;;;;16.43;65.70;100255.56;2297521;70;20152;-80
2021/10/27 11:24:12;;;;;;;4.74;1.40;;;;;;;16.73;64.15;100249.91;2301695;70;20186;-81
2021/10/27 11:40:44;;;;;;;5.49;1.85;;;;;;;16.73;64.41;100222.81;2303334;70;20143;-81
2021/10/27 11:44:33;;;;;;;5.54;2.19;;;;;;;16.76;65.20;100233.25;2303163;70;20167;-82
2021/10/27 11:47:40;;;;;;;5.45;1.99;;;;;;;16.75;64.72;100223.66;2300078;67;112409;-80
2021/10/27 12:17:35;;;;;;;16.02;3.53;;;;;;;16.77;62.42;100191.28;2308547;67;50421;-82
2021/10/27 12:20:44;;;;;;;7.53;2.80;;;;;;;16.81;63.49;100187.69;2298666;69;20178;-82
2021/10/27 12:23:49;;;;;;;7.80;2.90;;;;;;;16.91;63.22;100188.41;2304978;70;20116;-81
2021/10/27 12:27:02;;;;;;;6.51;2.66;;;;;;;16.87;62.73;100189.34;2298810;70;20162;-81
2021/10/27 12:30:10;;;;;;;7.14;2.84;;;;;;;16.77;63.10;100172.91;2303273;70;20111;-81
2021/10/27 12:48:55;;;;;;;4.88;2.54;;;;;;;16.75;63.89;100145.84;2272807;70;20237;-79
2021/10/27 12:51:58;;;;;;;6.16;2.00;;;;;;;16.74;63.05;100148.50;2288643;70;20166;-80
2021/10/27 12:55:26;;;;;;;7.53;3.17;;;;;;;16.65;63.30;100140.75;2291207;70;20121;-81
2021/10/27 12:58:31;;;;;;;6.47;2.29;;;;;;;16.67;64.06;100145.09;2285584;70;20156;-78
2021/10/27 13:04:52;;;;;;;4.89;2.40;;;;;;;16.60;63.72;100130.34;2275002;70;20903;-78
2021/10/27 13:08:01;;;;;;;5.05;2.04;;;;;;;16.62;64.04;100126.78;2273531;70;20288;-78
2021/10/27 13:11:20;;;;;;;6.51;2.80;;;;;;;16.62;63.73;100121.53;2272295;70;20188;-78
2021/10/27 13:14:42;;;;;;;5.40;2.41;;;;;;;16.60;63.39;100128.56;2272522;70;20254;-78
2021/10/27 13:21:37;;;;;;;9.52;2.66;;;;;;;16.52;64.01;100119.13;2272570;70;20168;-78
2021/10/27 13:31:14;;;;;;;5.06;2.24;;;;;;;16.32;63.43;100111.56;2272074;67;21368;-78
2021/10/27 13:34:17;;;;;;;4.35;2.10;;;;;;;16.21;63.98;100100.41;2273933;70;20165;-78
2021/10/27 13:37:20;;;;;;;4.79;1.90;;;;;;;16.16;64.20;100099.63;2274328;70;20869;-78
2021/10/27 13:40:25;;;;;;;3.70;1.76;;;;;;;16.14;65.02;100097.00;2273079;70;20254;-79
2021/10/27 13:43:36;;;;;;;6.22;2.25;;;;;;;16.08;64.09;100091.88;2275164;70;20144;-78
2021/10/27 14:06:53;;;;;;;7.28;3.78;;;;;;;15.77;66.55;100082.72;2274540;70;20160;-78
2021/10/27 14:10:06;;;;;;;7.47;4.80;;;;;;;15.72;66.67;100074.94;2273743;70;20278;-78
2021/10/27 14:13:17;;;;;;;7.61;4.63;;;;;;;15.68;66.95;100076.75;2273267;70;21141;-78
2021/10/27 14:19:42;;;;;;;13.13;5.06;;;;;;;15.60;67.34;100067.25;2272861;70;20156;-78
2021/10/27 15:20:22;;;;;;;11.11;8.32;;;;;;;14.64;72.81;100023.97;2272855;70;20140;-78
2021/10/27 15:36:54;;;;;;;12.29;8.98;;;;;;;14.04;74.86;100019.28;2272610;70;20174;-78
2021/10/27 15:52:53;;;;;;;12.32;8.66;;;;;;;13.46;77.48;100010.97;2269845;70;20148;-78
2021/10/27 15:55:56;;;;;;;13.04;8.30;;;;;;;13.34;77.82;100017.16;2269662;70;20176;-77
2021/10/27 15:58:59;;;;;;;15.24;8.36;;;;;;;13.25;77.86;100018.06;2269287;70;20266;-77
2021/10/27 16:02:01;;;;;;;14.10;7.91;;;;;;;13.17;77.72;100019.81;2266499;68;27477;-77
2021/10/27 16:05:07;;;;;;;16.85;8.54;;;;;;;13.09;77.55;100018.97;2269709;70;20152;-77
2021/10/27 16:08:18;;;;;;;13.01;8.65;;;;;;;12.98;77.53;100019.03;2269769;70;20317;-78
2021/10/27 16:11:22;;;;;;;10.54;8.15;;;;;;;12.90;77.69;100026.00;2270442;70;20156;-77
2021/10/27 16:14:28;;;;;;;20.70;9.31;;;;;;;12.85;77.87;100029.50;2270349;70;20197;-78
2021/10/27 16:17:31;;;;;;;11.55;8.55;;;;;;;12.75;78.18;100019.97;2268302;68;23857;-78
2021/10/27 16:20:36;;;;;;;12.00;9.24;;;;;;;12.66;78.38;100019.13;2271040;70;20178;-78
2021/10/27 16:23:39;;;;;;;13.88;10.05;;;;;;;12.58;78.41;100018.31;2270845;70;20186;-78
2021/10/27 16:26:41;;;;;;;13.69;10.39;;;;;;;12.49;78.69;100017.44;2270720;70;20239;-78
2021/10/27 16:29:44;;;;;;;15.89;10.34;;;;;;;12.42;79.17;100018.34;2271122;70;20249;-78
2021/10/27 16:32:46;;;;;;;16.08;11.06;;;;;;;12.34;79.41;100023.53;2268324;68;20594;-78
2021/10/27 16:35:51;;;;;;;14.64;10.84;;;;;;;12.23;79.80;100020.09;2275301;70;20188;-80
2021/10/27 16:38:54;;;;;;;16.89;11.38;;;;;;;12.15;79.96;100019.22;2273727;70;20168;-79
2021/10/27 16:41:57;;;;;;;16.29;11.93;;;;;;;12.05;80.32;100023.59;2274301;70;21099;-79
2021/10/27 16:45:00;;;;;;;15.70;12.49;;;;;;;11.97;80.54;100020.09;2273524;70;20219;-78
2021/10/27 16:48:33;;;;;;;16.39;12.98;;;;;;;11.91;80.87;100013.16;2276123;68;26606;-81
2021/10/27 16:52:17;;;;;;;19.85;12.73;;;;;;;11.88;81.14;100023.59;2260707;71;20159;-80
2021/10/27 16:56:10;;;;;;;15.49;11.59;;;;;;;11.78;81.29;100017.50;2232914;72;20149;-85
2021/10/27 16:59:28;;;;;;;14.86;11.43;;;;;;;11.69;81.34;100017.47;2235696;72;20194;-80
2021/10/27 17:02:39;;;;;;;16.91;11.76;;;;;;;11.62;82.02;100018.31;2233477;72;20194;-81
2021/10/27 17:05:53;;;;;;;16.76;11.94;;;;;;;11.56;82.36;100022.66;2236581;72;20157;-80
2021/10/27 17:08:58;;;;;;;17.34;12.38;;;;;;;11.37;83.01;100022.59;2216876;72;20203;-81
2021/10/27 17:12:39;;;;;;;15.73;10.94;;;;;;;11.23;83.58;100026.03;2203576;73;20164;-81
2021/10/27 17:15:49;;;;;;;17.69;11.70;;;;;;;11.00;84.24;100024.22;2292691;70;20159;-80
2021/10/27 17:18:58;;;;;;;18.20;11.40;;;;;;;10.85;84.79;100022.41;2284668;70;20559;-81
2021/10/27 17:22:13;;;;;;;17.51;12.15;;;;;;;10.71;85.19;100020.59;2284995;70;20146;-80
2021/10/27 17:25:30;;;;;;;14.09;11.11;;;;;;;10.59;85.36;100016.22;2294019;70;20251;-81
2021/10/27 17:28:35;;;;;;;18.98;10.95;;;;;;;10.46;85.73;100014.44;2277870;70;20178;-80
2021/10/27 17:31:38;;;;;;;14.06;11.09;;;;;;;10.34;86.03;100024.72;2270459;70;20184;-80
2021/10/27 17:35:11;;;;;;;16.88;11.46;;;;;;;10.31;86.50;100027.28;2074993;77;20147;-79
2021/10/27 17:38:14;;;;;;;15.80;11.20;;;;;;;10.15;86.95;100021.97;2084209;78;20127;-79
2021/10/27 17:41:18;;;;;;;14.16;11.52;;;;;;;10.09;87.36;100024.53;2083619;78;20222;-79
2021/10/27 17:44:20;;;;;;;17.95;11.79;;;;;;;10.02;87.65;100021.84;2079587;78;20204;-80
2021/10/27 17:47:30;;;;;;;19.54;12.81;;;;;;;9.94;87.82;100019.22;2047982;79;20274;-80
2021/10/27 18:01:52;;;;;;;20.26;12.46;;;;;;;9.62;88.95;100014.59;2019226;80;20226;-81
2021/10/27 18:05:12;;;;;;;20.49;12.50;;;;;;;9.55;89.06;100022.31;2023892;80;20167;-82
2021/10/27 18:08:22;;;;;;;19.50;13.11;;;;;;;9.46;89.19;100020.47;2029404;80;20208;-80
2021/10/27 18:12:24;;;;;;;18.54;12.90;;;;;;;9.42;89.53;100020.44;2029123;80;20670;-80
2021/10/27 18:16:15;;;;;;;16.70;12.39;;;;;;;9.32;89.09;100007.38;2012015;81;20228;-79
2021/10/27 18:19:50;;;;;;;19.30;12.21;;;;;;;9.29;88.97;100020.31;2019405;81;20328;-80
2021/10/27 18:23:09;;;;;;;18.08;13.07;;;;;;;9.21;88.30;100016.78;2017071;81;20168;-80
2021/10/27 18:26:43;;;;;;;19.41;13.98;;;;;;;9.16;88.71;100008.09;2030645;80;20239;-81
2021/10/27 18:39:55;;;;;;;19.39;13.90;;;;;;;8.91;89.75;100012.09;2038453;80;20282;-81
2021/10/27 18:43:11;;;;;;;28.41;14.71;;;;;;;8.85;90.02;100005.97;2037895;80;20314;-80
2021/10/27 18:46:15;;;;;;;21.33;13.50;;;;;;;8.78;90.26;100000.72;2032560;80;20342;-80
2021/10/27 18:49:19;;;;;;;19.70;13.99;;;;;;;8.71;90.30;100001.50;2033818;80;20213;-80
2021/10/27 18:52:42;;;;;;;20.73;14.24;;;;;;;8.65;89.93;99995.38;2046690;79;20324;-81
2021/10/27 18:56:11;;;;;;;21.85;13.99;;;;;;;8.64;89.79;99998.81;2051387;79;20346;-81
2021/10/27 18:59:23;;;;;;;20.61;13.45;;;;;;;8.58;89.92;100001.31;2044844;79;20295;-80
2021/10/27 19:02:33;;;;;;;20.02;13.32;;;;;;;8.52;90.39;99988.28;2054011;77;52731;-80
2021/10/27 19:15:37;;;;;;;19.71;13.01;;;;;;;8.30;90.88;99989.69;2059368;79;20487;-80
2021/10/27 19:18:40;;;;;;;;;;;;;;;8.28;90.90;99978.44;2062137;79;20319;-81
2021/10/27 19:21:43;;;;;;;17.02;11.13;;;;;;;8.24;91.03;99980.09;2059661;79;20017;-81
2021/10/27 19:24:56;;;;;;;16.83;11.61;;;;;;;8.18;91.05;99982.59;2056790;79;20398;-81
2021/10/27 20:08:24;;;;;;;18.55;12.71;;;;;;;7.60;91.27;99962.72;2062779;79;20292;-83
2021/10/27 20:11:54;;;;;;;16.90;12.32;;;;;;;7.55;91.31;99962.66;2056156;79;20365;-80
2021/10/27 20:28:38;;;;;;;16.84;12.32;;;;;;;7.33;91.44;99952.78;2069029;79;20311;-80
2021/10/27 20:51:33;;;;;;;17.51;12.49;;;;;;;7.00;91.35;99956.47;2072923;79;20347;-82
2021/10/27 20:54:37;;;;;;;20.85;13.01;;;;;;;6.92;91.17;99951.19;2057907;79;20297;-80
2021/10/27 21:45:51;;;;;;;21.39;12.21;;;;;;;6.29;91.45;99943.91;2208667;71;20383;-79
2021/10/27 21:48:54;;;;;;;20.05;12.76;;;;;;;6.27;91.41;99931.78;2004088;81;20273;-81
2021/10/27 21:51:56;;;;;;;22.29;13.26;;;;;;;6.21;91.39;99927.38;2011673;81;20289;-80
2021/10/27 21:55:00;;;;;;;21.88;13.20;;;;;;;6.18;91.51;99924.72;2007041;81;20285;-80
2021/10/27 21:58:03;;;;;;;20.73;13.25;;;;;;;6.15;91.57;99923.81;1998660;81;20352;-81
2021/10/27 22:01:05;;;;;;;20.02;13.20;;;;;;;6.12;91.68;99929.78;2007318;81;20340;-79
2021/10/27 22:04:08;;;;;;;23.26;13.51;;;;;;;6.09;91.77;99916.78;2001911;81;20313;-79
2021/10/27 22:07:11;;;;;;;25.06;14.00;;;;;;;6.07;91.89;99911.59;2007343;81;20353;-81
2021/10/27 22:10:14;;;;;;;23.56;13.99;;;;;;;6.06;91.90;99914.16;2006542;81;20307;-80
2021/10/27 22:13:17;;;;;;;19.86;12.71;;;;;;;6.03;92.06;99912.38;2018601;81;20337;-80
2021/10/27 22:16:20;;;;;;;19.63;12.84;;;;;;;6.03;92.10;99909.78;2002582;81;20289;-79
2021/10/27 22:19:22;;;;;;;18.01;11.98;;;;;;;6.03;91.81;99909.78;2000131;81;20290;-80
2021/10/27 22:22:25;;;;;;;19.63;12.54;;;;;;;6.04;91.64;99905.50;2019409;81;20344;-80
2021/10/27 22:25:29;;;;;;;20.95;12.74;;;;;;;6.03;91.55;99909.78;2009037;82;20297;-80
2021/10/27 22:28:33;;;;;;;21.00;12.66;;;;;;;6.03;91.53;99906.34;2001884;82;20308;-80
2021/10/27 22:31:37;;;;;;;19.14;13.63;;;;;;;6.00;91.61;99902.00;2006609;81;20277;-79
2021/10/27 22:34:39;;;;;;;18.02;12.57;;;;;;;5.95;91.74;99893.31;1999118;81;20281;-80
2021/10/27 22:37:42;;;;;;;21.42;13.11;;;;;;;5.94;91.97;99895.84;1998576;82;20289;-80
2021/10/27 22:40:46;;;;;;;21.71;13.71;;;;;;;5.88;92.15;99899.09;1998741;81;20326;-80
2021/10/27 22:43:50;;;;;;;21.60;13.16;;;;;;;5.84;92.30;99887.00;2007000;81;20373;-80
2021/10/27 22:46:53;;;;;;;18.67;12.27;;;;;;;5.79;92.39;99888.63;2009801;81;20302;-80
2021/10/27 22:49:56;;;;;;;27.79;13.32;;;;;;;5.75;92.37;99887.69;2006489;81;20311;-79
2021/10/27 22:52:59;;;;;;;24.60;14.02;;;;;;;5.73;92.32;99880.72;2011967;81;20269;-80
2021/10/27 22:56:02;;;;;;;29.88;15.35;;;;;;;5.74;92.78;99888.50;1995736;81;20310;-79
2021/10/27 22:59:07;;;;;;;32.33;13.57;;;;;;;5.77;92.90;99879.97;2014230;81;20293;-80
2021/10/27 23:05:40;;;;;;;21.08;13.64;;;;;;;5.72;93.17;99882.44;2003903;81;20321;-80
